Time;durP1;ratioP1;P1;durP2;ratioP2;P2;SDS_P1;SDS_P2;PMS_P1;PMS_P2;Temp;Humidity;BMP_temperature;BMP_pressure;BME280_temperature;BME280_humidity;BME280_pressure;Samples;Min_cycle;Max_cycle;Signal;HPM_P1;HPM_P2
2022/08/20 00:00:52;;;;;;;5.22;4.93;;;25.00;59.30;;;;;;5014100;28;20399;-68
2022/08/20 00:03:28;;;;;;;5.55;5.25;;;25.00;59.30;;;;;;5013798;28;20389;-69
2022/08/20 00:06:17;;;;;;;5.10;4.80;;;25.00;59.30;;;;;;5013727;28;20885;-68
2022/08/20 00:08:44;;;;;;;4.78;4.53;;;25.00;59.30;;;;;;5013408;28;20400;-68
2022/08/20 00:11:13;;;;;;;5.10;4.80;;;25.00;59.50;;;;;;5013746;28;20416;-68
2022/08/20 00:13:44;;;;;;;4.85;4.55;;;25.00;59.50;;;;;;5013666;28;20393;-68
2022/08/20 00:16:12;;;;;;;5.07;4.78;;;25.00;59.60;;;;;;5013777;28;20480;-68
2022/08/20 00:18:39;;;;;;;4.97;4.68;;;25.00;59.60;;;;;;5012677;28;20394;-68
2022/08/20 00:21:07;;;;;;;5.03;4.72;;;25.00;59.60;;;;;;4996044;28;20389;-68
2022/08/20 00:23:36;;;;;;;4.20;4.00;;;25.00;60.10;;;;;;5013586;28;20401;-68
2022/08/20 00:26:03;;;;;;;4.10;3.90;;;25.00;59.40;;;;;;5013434;28;20397;-68
2022/08/20 00:28:28;;;;;;;4.50;4.30;;;25.00;59.50;;;;;;5013486;28;20444;-68
2022/08/20 00:30:54;;;;;;;4.53;4.32;;;25.00;59.40;;;;;;4995497;28;20470;-68
2022/08/20 00:33:22;;;;;;;4.18;3.97;;;25.00;59.40;;;;;;4995673;28;20484;-68
2022/08/20 00:35:55;;;;;;;4.75;4.45;;;25.00;59.40;;;;;;4995871;28;20416;-68
2022/08/20 00:38:22;;;;;;;4.30;4.10;;;25.00;59.30;;;;;;5008392;28;21009;-68
2022/08/20 00:40:56;;;;;;;4.45;4.18;;;24.90;59.30;;;;;;4993503;28;20791;-69
2022/08/20 00:43:41;;;;;;;4.55;4.25;;;25.00;59.40;;;;;;4993629;28;20387;-68
2022/08/20 00:46:20;;;;;;;4.82;4.53;;;24.90;59.30;;;;;;4993634;28;20386;-68
2022/08/20 00:48:49;;;;;;;4.00;3.80;;;25.00;59.30;;;;;;4993553;28;20395;-68
2022/08/20 00:51:15;;;;;;;4.18;3.88;;;24.90;59.30;;;;;;4993502;28;20389;-68
2022/08/20 00:53:42;;;;;;;3.92;3.72;;;25.00;59.10;;;;;;4992101;28;20399;-68
2022/08/20 00:56:09;;;;;;;4.45;4.15;;;24.90;58.90;;;;;;4992211;28;20937;-68
2022/08/20 00:58:37;;;;;;;3.95;3.75;;;25.00;58.90;;;;;;4992891;28;20423;-68
2022/08/20 01:01:03;;;;;;;4.32;4.13;;;24.90;58.80;;;;;;4992911;28;20402;-68
2022/08/20 01:03:29;;;;;;;3.78;3.58;;;24.90;58.80;;;;;;4992984;28;20395;-68
2022/08/20 01:05:55;;;;;;;4.47;4.17;;;24.90;58.80;;;;;;4992937;28;20391;-68
2022/08/20 01:08:22;;;;;;;4.45;4.25;;;24.90;58.90;;;;;;5008180;28;20429;-68
2022/08/20 01:10:50;;;;;;;4.07;3.88;;;24.90;58.80;;;;;;4993055;28;20401;-68
2022/08/20 01:13:21;;;;;;;4.28;3.97;;;24.90;58.90;;;;;;4992797;28;20399;-68
2022/08/20 01:15:50;;;;;;;3.95;3.75;;;24.90;58.90;;;;;;4992991;28;20394;-69
2022/08/20 01:18:21;;;;;;;5.03;4.72;;;24.90;58.80;;;;;;4991733;28;20403;-68
2022/08/20 01:21:02;;;;;;;4.00;3.80;;;24.90;58.70;;;;;;4993041;28;20395;-68
2022/08/20 01:23:47;;;;;;;3.90;3.70;;;24.90;58.90;;;;;;4992522;28;20398;-69
2022/08/20 01:26:43;;;;;;;3.97;3.70;;;24.90;58.90;;;;;;4991063;28;20958;-68
2022/08/20 01:29:18;;;;;;;4.05;3.75;;;24.90;58.90;;;;;;4986945;28;20413;-68
2022/08/20 01:31:44;;;;;;;4.30;4.10;;;24.90;59.00;;;;;;4992432;28;20402;-68
2022/08/20 01:34:14;;;;;;;4.03;3.83;;;24.80;58.90;;;;;;4991385;28;20452;-68
2022/08/20 01:36:47;;;;;;;4.37;4.17;;;24.90;59.50;;;;;;4990953;28;20398;-68
2022/08/20 01:39:17;;;;;;;4.60;4.30;;;24.80;58.90;;;;;;5010636;28;20412;-68
2022/08/20 01:42:14;;;;;;;5.00;4.70;;;24.80;59.00;;;;;;5012300;28;20389;-68
2022/08/20 01:44:42;;;;;;;4.57;4.28;;;24.80;58.90;;;;;;5012177;28;20397;-69
2022/08/20 01:47:21;;;;;;;4.70;4.40;;;24.80;58.90;;;;;;5012078;28;20426;-68
2022/08/20 01:49:54;;;;;;;4.60;4.30;;;24.80;58.90;;;;;;4994559;28;20401;-68
2022/08/20 01:52:50;;;;;;;5.05;4.75;;;24.80;58.90;;;;;;4994418;28;20444;-68
2022/08/20 01:55:16;;;;;;;5.03;4.72;;;24.80;58.80;;;;;;5012056;28;20734;-68
2022/08/20 01:57:43;;;;;;;4.63;4.32;;;24.80;59.50;;;;;;4994317;28;20958;-68
2022/08/20 02:00:12;;;;;;;4.70;4.40;;;24.80;59.00;;;;;;5010750;28;20462;-68
2022/08/20 02:02:39;;;;;;;4.90;4.60;;;24.80;59.10;;;;;;5011884;28;20433;-68
2022/08/20 02:05:06;;;;;;;4.60;4.35;;;24.80;59.00;;;;;;5011773;28;20903;-69
2022/08/20 02:07:32;;;;;;;4.63;4.32;;;24.80;59.10;;;;;;4994266;28;20500;-68
2022/08/20 02:09:58;;;;;;;4.68;4.38;;;24.80;59.20;;;;;;4994119;28;20385;-68
2022/08/20 02:12:24;;;;;;;4.60;4.35;;;24.80;59.20;;;;;;5011978;28;20873;-68
2022/08/20 02:14:52;;;;;;;4.37;4.07;;;24.80;59.10;;;;;;5011948;28;20397;-68
2022/08/20 02:17:19;;;;;;;4.68;4.38;;;24.80;59.20;;;;;;5010532;28;20409;-68
2022/08/20 02:19:53;;;;;;;4.80;4.50;;;24.80;59.20;;;;;;5011892;28;20385;-68
2022/08/20 02:22:38;;;;;;;4.55;4.25;;;24.80;59.20;;;;;;5011908;28;20397;-69
2022/08/20 02:25:06;;;;;;;4.55;4.25;;;24.80;59.10;;;;;;5011705;28;20873;-68
2022/08/20 02:27:32;;;;;;;4.32;4.03;;;24.80;59.20;;;;;;5011532;28;20424;-69
2022/08/20 02:29:58;;;;;;;4.50;4.30;;;24.80;59.10;;;;;;5010427;28;20399;-68
2022/08/20 02:32:24;;;;;;;4.25;4.05;;;24.80;59.10;;;;;;5011697;28;20881;-69
2022/08/20 02:34:49;;;;;;;4.57;4.27;;;24.80;59.10;;;;;;5011481;28;20389;-68
2022/08/20 02:37:17;;;;;;;4.78;4.47;;;24.70;59.00;;;;;;5011552;28;20893;-68
2022/08/20 02:39:44;;;;;;;4.95;4.65;;;24.70;59.10;;;;;;5011764;28;20385;-68
2022/08/20 02:42:11;;;;;;;4.68;4.38;;;24.70;59.00;;;;;;5012935;28;20745;-68
2022/08/20 02:44:38;;;;;;;4.73;4.43;;;24.80;59.10;;;;;;5015440;28;20393;-68
2022/08/20 02:47:05;;;;;;;4.20;3.90;;;24.70;59.00;;;;;;4997728;28;20421;-68
2022/08/20 02:49:31;;;;;;;4.30;4.00;;;24.70;59.00;;;;;;4997602;28;20423;-68
2022/08/20 02:51:56;;;;;;;4.78;4.47;;;24.70;59.10;;;;;;5014806;28;20397;-68
2022/08/20 02:54:23;;;;;;;4.38;4.07;;;24.70;59.00;;;;;;5014252;28;20393;-68
2022/08/20 02:56:49;;;;;;;5.50;5.10;;;24.70;58.90;;;;;;5015236;28;20408;-68
2022/08/20 02:59:14;;;;;;;4.95;4.63;;;24.70;59.00;;;;;;4997601;28;20421;-68
2022/08/20 03:01:40;;;;;;;5.20;4.80;;;24.70;59.00;;;;;;5015098;28;20435;-68
2022/08/20 03:04:06;;;;;;;4.93;4.63;;;24.70;59.00;;;;;;5014888;28;20425;-68
2022/08/20 03:06:31;;;;;;;4.80;4.50;;;24.70;59.00;;;;;;5014836;28;20431;-69
2022/08/20 03:08:57;;;;;;;4.50;4.20;;;24.70;59.00;;;;;;5014679;28;20475;-68
2022/08/20 03:11:22;;;;;;;4.80;4.50;;;24.70;59.00;;;;;;5014618;28;20387;-68
2022/08/20 03:13:48;;;;;;;4.85;4.55;;;24.70;59.10;;;;;;5014871;28;20397;-68
2022/08/20 03:16:14;;;;;;;4.87;4.57;;;24.70;59.00;;;;;;5014446;28;20544;-69
2022/08/20 03:18:44;;;;;;;4.78;4.47;;;24.70;59.00;;;;;;5014796;28;20401;-68
2022/08/20 03:21:10;;;;;;;4.50;4.20;;;24.70;58.90;;;;;;4996889;28;20484;-69
2022/08/20 03:23:37;;;;;;;4.93;4.57;;;24.70;58.90;;;;;;5014651;28;20390;-69
2022/08/20 03:26:05;;;;;;;4.78;4.47;;;24.70;58.90;;;;;;5014666;28;20723;-68
2022/08/20 03:28:32;;;;;;;4.75;4.45;;;24.70;59.00;;;;;;4996842;28;20416;-68
2022/08/20 03:30:58;;;;;;;4.68;4.38;;;24.70;58.90;;;;;;4997035;28;20919;-68
2022/08/20 03:33:26;;;;;;;4.70;4.40;;;24.70;59.00;;;;;;4996969;28;20405;-68
2022/08/20 03:35:51;;;;;;;4.78;4.47;;;24.70;59.00;;;;;;5012953;28;20409;-68
2022/08/20 03:38:20;;;;;;;4.73;4.43;;;24.70;59.00;;;;;;4996752;28;20417;-69
2022/08/20 03:40:48;;;;;;;4.80;4.50;;;24.70;59.00;;;;;;4996850;28;20455;-69
2022/08/20 03:43:13;;;;;;;5.03;4.72;;;24.70;59.00;;;;;;5014336;28;20401;-68
2022/08/20 03:45:41;;;;;;;5.00;4.70;;;24.70;59.00;;;;;;4996798;28;20499;-68
2022/08/20 03:48:09;;;;;;;5.07;4.78;;;24.70;59.10;;;;;;5014112;28;20456;-68
2022/08/20 03:50:34;;;;;;;5.20;4.90;;;24.60;59.00;;;;;;4996723;28;20750;-68
2022/08/20 03:53:01;;;;;;;5.60;5.30;;;24.60;59.00;;;;;;5012810;28;20397;-68
2022/08/20 03:55:28;;;;;;;4.68;4.38;;;24.70;59.00;;;;;;5014031;28;20880;-68
2022/08/20 03:57:57;;;;;;;5.35;5.05;;;24.60;58.90;;;;;;4996608;28;20409;-68
2022/08/20 04:00:30;;;;;;;5.20;4.90;;;24.70;59.00;;;;;;4996431;28;20523;-68
2022/08/20 04:02:56;;;;;;;4.95;4.65;;;24.60;58.90;;;;;;5014068;28;20887;-68
2022/08/20 04:05:25;;;;;;;4.57;4.28;;;24.60;59.00;;;;;;5013689;28;20482;-68
2022/08/20 04:07:51;;;;;;;5.28;4.88;;;24.60;59.00;;;;;;4996210;28;20920;-68
2022/08/20 04:10:17;;;;;;;4.40;4.10;;;24.60;59.00;;;;;;5013752;28;20400;-68
2022/08/20 04:12:43;;;;;;;5.35;5.05;;;24.60;59.00;;;;;;5013547;28;20498;-68
2022/08/20 04:15:14;;;;;;;4.90;4.60;;;24.60;59.10;;;;;;5013174;28;20420;-68
2022/08/20 04:17:42;;;;;;;4.60;4.30;;;24.60;59.10;;;;;;5013585;28;20397;-68
2022/08/20 04:20:11;;;;;;;4.97;4.68;;;24.60;59.10;;;;;;5013647;28;20864;-69
2022/08/20 04:22:37;;;;;;;5.63;5.32;;;24.60;59.10;;;;;;4996028;28;20885;-68
2022/08/20 04:25:05;;;;;;;4.88;4.57;;;24.60;59.00;;;;;;4996103;28;20388;-68
2022/08/20 04:27:34;;;;;;;5.38;5.07;;;24.60;59.10;;;;;;5013367;28;20413;-68
2022/08/20 04:30:02;;;;;;;6.00;5.70;;;24.60;59.10;;;;;;5013575;28;20401;-68
2022/08/20 04:32:28;;;;;;;5.53;5.22;;;24.60;59.20;;;;;;5013315;28;20397;-68
2022/08/20 04:34:54;;;;;;;5.30;5.00;;;24.60;59.10;;;;;;5013257;28;20399;-68
2022/08/20 04:37:21;;;;;;;5.70;5.40;;;24.60;59.00;;;;;;5013184;28;20405;-69
2022/08/20 04:40:52;;;;;;;4.70;4.40;;;24.60;59.10;;;;;;5013397;28;20397;-69
2022/08/20 04:42:37;;;;;;;5.13;4.82;;;24.60;59.00;;;;;;5013184;28;20397;-69
2022/08/20 04:45:05;;;;;;;5.85;5.55;;;24.60;59.20;;;;;;4995405;28;20440;-69
2022/08/20 04:47:31;;;;;;;4.97;4.68;;;24.60;59.20;;;;;;5012804;28;20452;-69
2022/08/20 04:50:00;;;;;;;5.30;5.00;;;24.60;59.10;;;;;;5013218;28;20885;-69
2022/08/20 04:52:27;;;;;;;5.03;4.72;;;24.60;59.00;;;;;;5012969;28;20401;-69
2022/08/20 04:54:55;;;;;;;4.95;4.65;;;24.60;59.20;;;;;;4995392;28;20393;-69
2022/08/20 04:57:22;;;;;;;4.70;4.40;;;24.60;59.30;;;;;;4995183;28;20470;-69
2022/08/20 04:59:50;;;;;;;5.63;5.32;;;24.60;59.10;;;;;;4994573;28;20897;-69
2022/08/20 05:02:17;;;;;;;5.17;4.87;;;24.60;59.20;;;;;;5012501;28;20877;-69
2022/08/20 05:04:43;;;;;;;5.05;4.75;;;24.60;59.10;;;;;;5011860;28;20448;-68
2022/08/20 05:07:12;;;;;;;5.20;4.90;;;24.50;59.80;;;;;;5012695;28;20456;-68
2022/08/20 05:09:38;;;;;;;4.82;4.53;;;24.60;59.10;;;;;;4994961;28;20397;-68
2022/08/20 05:12:03;;;;;;;4.95;4.65;;;24.60;59.10;;;;;;5012680;28;20401;-69
2022/08/20 05:14:30;;;;;;;5.13;4.83;;;24.60;59.10;;;;;;5011083;28;20785;-69
2022/08/20 05:16:58;;;;;;;5.30;4.97;;;24.50;59.10;;;;;;5011378;28;20411;-69
2022/08/20 05:19:24;;;;;;;5.53;5.23;;;24.60;59.10;;;;;;5012059;28;20396;-68
2022/08/20 05:21:52;;;;;;;5.30;5.00;;;24.50;59.10;;;;;;5008744;28;20409;-69
2022/08/20 05:24:18;;;;;;;4.90;4.60;;;24.50;59.20;;;;;;4994787;28;20408;-69
2022/08/20 05:26:45;;;;;;;5.07;4.78;;;24.50;59.30;;;;;;5012078;28;20404;-69
2022/08/20 05:29:11;;;;;;;5.47;5.10;;;24.50;59.20;;;;;;5010859;28;20401;-68
2022/08/20 05:31:37;;;;;;;5.30;5.00;;;24.50;59.20;;;;;;5010697;28;20400;-68
2022/08/20 05:34:08;;;;;;;5.30;5.00;;;24.50;59.30;;;;;;5011009;28;20436;-69
2022/08/20 05:36:38;;;;;;;5.53;5.22;;;24.50;59.20;;;;;;5012447;28;20396;-68
2022/08/20 05:39:04;;;;;;;5.60;5.20;;;24.50;59.20;;;;;;4994724;28;20450;-68
2022/08/20 05:41:29;;;;;;;4.97;4.60;;;24.50;59.20;;;;;;5011625;28;20404;-69
2022/08/20 05:43:59;;;;;;;4.75;4.45;;;24.50;59.60;;;;;;5010597;28;20396;-69
2022/08/20 05:46:25;;;;;;;5.15;4.68;;;24.50;58.80;;;;;;5012138;28;20520;-68
2022/08/20 05:48:51;;;;;;;9.47;8.43;;;24.50;59.20;;;;;;5012128;28;20428;-69
2022/08/20 05:51:17;;;;;;;6.90;6.30;;;24.50;60.90;;;;;;5012240;28;20420;-69
2022/08/20 05:53:42;;;;;;;6.80;6.30;;;24.50;60.30;;;;;;5012185;28;20400;-68
2022/08/20 05:56:10;;;;;;;6.57;6.07;;;24.50;60.20;;;;;;5010959;28;20828;-68
2022/08/20 05:58:36;;;;;;;6.40;5.20;;;24.50;59.90;;;;;;4994550;28;20885;-69
2022/08/20 06:01:02;;;;;;;5.30;4.85;;;24.50;59.60;;;;;;5011981;28;20865;-69
2022/08/20 06:06:13;;;;;;;6.13;5.20;;;24.50;60.40;;;;;;5012235;28;20871;-69
2022/08/20 06:08:38;;;;;;;7.20;4.78;;;24.50;60.30;;;;;;4994454;28;20412;-69
2022/08/20 06:11:04;;;;;;;5.63;4.97;;;24.50;60.30;;;;;;5010910;28;20393;-69
2022/08/20 06:13:30;;;;;;;7.85;5.20;;;24.50;60.40;;;;;;5011871;28;20389;-69
2022/08/20 06:15:56;;;;;;;7.87;5.70;;;24.50;60.50;;;;;;4994617;28;20395;-69
2022/08/20 06:18:22;;;;;;;7.57;6.07;;;24.50;60.70;;;;;;4997577;28;20399;-69
2022/08/20 06:20:49;;;;;;;6.47;5.88;;;24.50;60.90;;;;;;4998412;28;20423;-69
2022/08/20 06:23:15;;;;;;;6.60;6.10;;;24.50;61.00;;;;;;5015951;28;20396;-69
2022/08/20 06:25:40;;;;;;;7.63;6.18;;;24.50;61.00;;;;;;4998068;28;20400;-69
2022/08/20 06:28:06;;;;;;;6.00;5.53;;;24.50;61.20;;;;;;5016030;28;20563;-69
2022/08/20 06:30:33;;;;;;;6.88;6.28;;;24.50;61.20;;;;;;5015867;28;20459;-69
2022/08/20 06:32:59;;;;;;;7.47;6.78;;;24.50;61.20;;;;;;5015748;28;20396;-69
2022/08/20 06:35:24;;;;;;;9.43;6.25;;;24.50;61.20;;;;;;5015758;28;20385;-69
2022/08/20 06:37:51;;;;;;;7.57;5.77;;;24.50;61.60;;;;;;5015478;28;20881;-69
2022/08/20 06:40:25;;;;;;;8.70;5.65;;;24.50;61.70;;;;;;5014271;28;20393;-69
2022/08/20 06:42:51;;;;;;;7.30;5.50;;;24.50;61.80;;;;;;5015625;28;20428;-69
2022/08/20 06:45:26;;;;;;;7.68;5.13;;;24.50;62.40;;;;;;4997875;28;20391;-69
2022/08/20 06:47:55;;;;;;;8.00;4.60;;;24.50;62.70;;;;;;5015107;28;20439;-69
2022/08/20 06:50:25;;;;;;;8.40;5.50;;;24.40;62.50;;;;;;4997464;28;20400;-69
2022/08/20 06:52:51;;;;;;;8.50;5.57;;;24.40;63.20;;;;;;4997845;28;20455;-69
2022/08/20 06:55:17;;;;;;;15.27;5.13;;;24.40;62.80;;;;;;5015319;28;20396;-69
2022/08/20 06:57:46;;;;;;;12.13;11.00;;;24.40;62.50;;;;;;5013681;28;20403;-71
2022/08/20 07:00:18;;;;;;;10.18;9.40;;;24.40;62.20;;;;;;5016204;28;20389;-69
2022/08/20 07:02:45;;;;;;;9.88;8.98;;;24.40;62.00;;;;;;5014996;28;20429;-69
2022/08/20 07:05:11;;;;;;;8.32;7.63;;;24.40;62.40;;;;;;5013974;28;20428;-69
2022/08/20 07:07:37;;;;;;;8.38;7.75;;;24.40;61.80;;;;;;5017414;28;20417;-69
2022/08/20 07:10:06;;;;;;;9.68;8.98;;;24.40;61.90;;;;;;5015266;28;20381;-69
2022/08/20 07:12:33;;;;;;;8.27;7.70;;;24.40;61.80;;;;;;5014843;28;20397;-69
2022/08/20 07:14:59;;;;;;;8.88;8.25;;;24.40;61.80;;;;;;5004963;28;20398;-69
2022/08/20 07:17:25;;;;;;;8.57;7.97;;;24.40;61.80;;;;;;5009169;28;20396;-69
2022/08/20 07:19:50;;;;;;;9.80;9.10;;;24.40;62.10;;;;;;5014829;28;20757;-69
2022/08/20 07:22:16;;;;;;;9.43;8.67;;;24.40;61.60;;;;;;5014835;28;20777;-70
2022/08/20 07:24:43;;;;;;;8.88;8.13;;;24.40;61.40;;;;;;5014733;28;20391;-69
2022/08/20 07:27:08;;;;;;;8.85;8.20;;;24.40;61.20;;;;;;5014296;28;20416;-69
2022/08/20 07:32:33;;;;;;;9.93;9.13;;;24.40;61.10;;;;;;5014738;28;20516;-69
2022/08/20 07:34:59;;;;;;;9.73;9.00;;;24.30;61.10;;;;;;5014306;28;20400;-69
2022/08/20 07:37:25;;;;;;;11.40;10.60;;;24.30;60.90;;;;;;5014265;28;20411;-69
2022/08/20 07:39:51;;;;;;;9.80;9.13;;;24.30;60.90;;;;;;5013360;28;20758;-69
2022/08/20 07:42:17;;;;;;;11.88;11.18;;;24.30;60.90;;;;;;4996604;28;20400;-69
2022/08/20 07:44:43;;;;;;;9.95;9.23;;;24.30;60.80;;;;;;4995643;28;20434;-69
2022/08/20 07:47:09;;;;;;;9.67;8.87;;;24.30;62.00;;;;;;5001442;28;20498;-69
2022/08/20 07:49:39;;;;;;;11.40;10.60;;;24.30;61.90;;;;;;5000547;28;20407;-69
2022/08/20 07:52:05;;;;;;;10.75;9.90;;;24.40;62.10;;;;;;4994573;28;20383;-69
2022/08/20 07:54:31;;;;;;;9.20;8.50;;;24.40;64.20;;;;;;4993027;28;20755;-69
2022/08/20 07:57:04;;;;;;;10.07;9.23;;;24.40;63.70;;;;;;4977691;28;20397;-70
2022/08/20 07:59:30;;;;;;;9.77;8.50;;;24.60;63.80;;;;;;5004850;28;20458;-68
2022/08/20 08:01:57;;;;;;;9.23;8.27;;;24.70;63.10;;;;;;5012880;28;20404;-69
2022/08/20 08:04:23;;;;;;;9.55;8.63;;;24.80;63.10;;;;;;5001256;28;20402;-69
2022/08/20 08:06:50;;;;;;;9.95;8.45;;;24.80;63.10;;;;;;4994135;28;20468;-69
2022/08/20 08:09:16;;;;;;;8.60;7.82;;;24.80;63.00;;;;;;4994073;28;20939;-70
2022/08/20 08:11:49;;;;;;;9.43;7.97;;;24.70;62.90;;;;;;4994180;28;20414;-71
2022/08/20 08:14:22;;;;;;;8.88;8.18;;;24.70;63.20;;;;;;4993697;28;20844;-69
2022/08/20 08:16:48;;;;;;;8.90;8.25;;;24.70;63.00;;;;;;4993652;28;20879;-69
2022/08/20 08:19:16;;;;;;;11.25;10.45;;;24.70;63.10;;;;;;4993574;28;20497;-70
2022/08/20 08:21:43;;;;;;;11.57;10.70;;;24.70;63.20;;;;;;4993373;28;20402;-70
2022/08/20 08:24:10;;;;;;;12.07;11.27;;;24.80;63.90;;;;;;4976771;28;20543;-71
2022/08/20 08:26:36;;;;;;;12.85;11.95;;;24.80;63.80;;;;;;4975569;28;20426;-68
2022/08/20 08:29:06;;;;;;;11.87;11.17;;;24.80;64.20;;;;;;4976715;28;20399;-69
2022/08/20 08:31:32;;;;;;;9.90;9.10;;;24.80;64.00;;;;;;4993463;28;20918;-69
2022/08/20 08:33:58;;;;;;;10.15;9.43;;;24.70;62.80;;;;;;4993072;28;20410;-68
2022/08/20 08:59:21;;;;;;;21.50;20.00;;;24.50;62.70;;;;;;5132327;27;20372;-70
2022/08/20 09:01:58;;;;;;;17.00;15.90;;;24.60;66.80;;;;;;5133380;27;20426;-67
2022/08/20 09:04:32;;;;;;;13.85;12.95;;;24.60;66.50;;;;;;5133187;27;20376;-73
2022/08/20 09:07:00;;;;;;;13.35;12.35;;;24.60;65.80;;;;;;5133075;27;20864;-73
2022/08/20 09:09:35;;;;;;;16.55;15.55;;;24.60;65.70;;;;;;5134682;27;20392;-71
2022/08/20 09:12:11;;;;;;;11.48;10.50;;;24.60;64.60;;;;;;5135290;27;20452;-73
2022/08/20 09:14:37;;;;;;;13.07;12.18;;;24.60;64.00;;;;;;5136202;27;20398;-70
2022/08/20 09:17:04;;;;;;;15.63;14.63;;;24.60;63.60;;;;;;5136299;27;20383;-72
2022/08/20 09:19:30;;;;;;;15.57;14.60;;;24.50;63.00;;;;;;5135674;27;20390;-71
2022/08/20 09:21:56;;;;;;;11.75;10.90;;;24.50;65.10;;;;;;5135392;27;20379;-73
2022/08/20 09:24:22;;;;;;;12.57;11.68;;;24.50;65.50;;;;;;5135478;27;20880;-77
2022/08/20 09:26:48;;;;;;;10.55;9.75;;;24.60;64.90;;;;;;5136602;27;20461;-74
2022/08/20 09:29:13;;;;;;;12.30;11.32;;;24.60;65.40;;;;;;5133700;28;20394;-68
2022/08/20 09:31:39;;;;;;;12.07;11.27;;;24.50;65.30;;;;;;5134496;27;20977;-69
2022/08/20 09:34:05;;;;;;;12.95;11.95;;;24.60;65.30;;;;;;5135183;27;20775;-68
2022/08/20 09:36:31;;;;;;;12.40;11.60;;;24.60;65.20;;;;;;5134721;27;20934;-71
2022/08/20 09:38:57;;;;;;;11.85;10.75;;;24.60;65.30;;;;;;5135124;27;20392;-71
2022/08/20 09:41:23;;;;;;;12.73;11.93;;;24.60;65.20;;;;;;5134816;27;20383;-68
2022/08/20 09:43:48;;;;;;;12.90;12.00;;;24.60;65.10;;;;;;5134493;27;20455;-71
2022/08/20 09:46:14;;;;;;;13.00;12.00;;;24.60;65.00;;;;;;5127560;27;20476;-68
2022/08/20 09:48:40;;;;;;;18.00;16.80;;;24.60;64.80;;;;;;5133560;27;20408;-71
2022/08/20 09:51:05;;;;;;;17.30;16.00;;;24.50;63.60;;;;;;5132332;27;20384;-69
2022/08/20 09:53:31;;;;;;;17.70;16.33;;;24.50;63.30;;;;;;5132041;27;20391;-68
2022/08/20 09:55:58;;;;;;;17.40;16.20;;;24.40;64.30;;;;;;5130735;28;20378;-69
2022/08/20 09:58:37;;;;;;;17.30;16.10;;;24.40;63.40;;;;;;5133043;27;20907;-72
2022/08/20 10:01:09;;;;;;;16.00;14.85;;;24.40;63.30;;;;;;5117567;28;20442;-69
2022/08/20 10:03:34;;;;;;;15.45;14.35;;;24.40;63.10;;;;;;5117183;28;20954;-69
2022/08/20 10:06:00;;;;;;;15.50;14.60;;;24.40;63.10;;;;;;5120082;27;20400;-72
2022/08/20 10:08:26;;;;;;;15.75;14.75;;;24.40;63.00;;;;;;5118102;28;20511;-72
2022/08/20 10:10:52;;;;;;;14.50;13.50;;;24.40;63.10;;;;;;5118663;28;20376;-71
2022/08/20 10:13:18;;;;;;;14.40;13.52;;;24.40;63.10;;;;;;5117661;27;20476;-69
2022/08/20 10:15:44;;;;;;;13.88;12.88;;;24.40;62.90;;;;;;5097929;27;20449;-69
2022/08/20 10:18:10;;;;;;;13.75;12.90;;;24.40;63.00;;;;;;5098058;28;20400;-71
2022/08/20 10:20:36;;;;;;;12.93;12.02;;;24.40;62.80;;;;;;5097586;28;20390;-69
2022/08/20 10:23:03;;;;;;;12.80;11.88;;;24.40;63.10;;;;;;5097929;28;20451;-72
2022/08/20 10:25:29;;;;;;;13.02;12.15;;;24.30;62.90;;;;;;5096496;28;20391;-69
2022/08/20 10:27:55;;;;;;;13.43;12.43;;;24.30;62.90;;;;;;5097892;28;21075;-70
2022/08/20 10:30:21;;;;;;;12.68;11.77;;;24.30;62.80;;;;;;5097267;28;20447;-68
2022/08/20 10:32:47;;;;;;;12.95;12.15;;;24.30;62.80;;;;;;5097687;28;20394;-74
2022/08/20 10:35:13;;;;;;;13.15;12.32;;;24.30;62.90;;;;;;5098125;28;20481;-73
2022/08/20 10:37:39;;;;;;;12.63;11.83;;;24.30;62.80;;;;;;5099917;28;20418;-70
2022/08/20 10:40:05;;;;;;;12.30;11.43;;;24.30;62.80;;;;;;5097614;28;20390;-72
2022/08/20 10:42:31;;;;;;;11.30;10.50;;;24.30;62.80;;;;;;5096019;28;20830;-69
2022/08/20 10:44:57;;;;;;;11.20;10.40;;;24.30;62.80;;;;;;5096717;28;20397;-71
2022/08/20 10:47:29;;;;;;;12.57;11.77;;;24.30;62.70;;;;;;5097912;28;20775;-72
2022/08/20 10:49:57;;;;;;;11.45;10.65;;;24.30;62.80;;;;;;5097165;28;20914;-69
2022/08/20 10:52:23;;;;;;;13.68;12.70;;;24.30;62.70;;;;;;5096834;28;20408;-69
2022/08/20 10:54:50;;;;;;;12.50;11.60;;;24.30;62.80;;;;;;5099809;28;20389;-73
2022/08/20 10:57:19;;;;;;;12.13;11.27;;;24.30;62.70;;;;;;5117171;28;20533;-73
2022/08/20 10:59:48;;;;;;;12.68;11.77;;;24.30;62.70;;;;;;5118023;28;20421;-73
2022/08/20 11:02:13;;;;;;;13.65;12.75;;;24.30;62.70;;;;;;5116713;28;20467;-69
2022/08/20 11:04:42;;;;;;;13.80;13.00;;;24.30;62.70;;;;;;5115451;28;20423;-72
2022/08/20 11:07:31;;;;;;;13.32;12.48;;;24.30;62.70;;;;;;5115526;28;20616;-69
2022/08/20 11:09:57;;;;;;;12.60;11.80;;;24.30;62.60;;;;;;5115922;28;20388;-73
2022/08/20 11:12:24;;;;;;;13.85;12.95;;;24.30;62.60;;;;;;5116572;28;20476;-70
2022/08/20 11:14:50;;;;;;;12.35;11.45;;;24.30;62.70;;;;;;5118065;28;20384;-77
2022/08/20 11:17:20;;;;;;;11.45;10.75;;;24.30;62.60;;;;;;5122272;28;20483;-78
2022/08/20 11:19:46;;;;;;;12.43;11.63;;;24.30;62.50;;;;;;5117736;28;20396;-76
2022/08/20 11:22:12;;;;;;;11.43;10.60;;;24.30;62.60;;;;;;5118343;28;20402;-77
2022/08/20 11:24:38;;;;;;;10.83;10.03;;;24.30;62.80;;;;;;5119368;28;20381;-76
2022/08/20 11:27:08;;;;;;;15.90;14.80;;;24.30;63.00;;;;;;5118591;28;20406;-79
2022/08/20 11:29:35;;;;;;;14.38;13.18;;;24.30;63.40;;;;;;5119208;28;20395;-78
2022/08/20 11:32:01;;;;;;;13.65;12.40;;;24.30;63.20;;;;;;5117731;28;20398;-77
2022/08/20 11:34:27;;;;;;;12.45;11.52;;;24.30;62.60;;;;;;5117957;28;20766;-69
2022/08/20 11:36:53;;;;;;;16.93;15.23;;;24.30;62.70;;;;;;5120231;28;20384;-76
2022/08/20 11:39:18;;;;;;;16.98;15.48;;;24.30;62.80;;;;;;5119284;28;20380;-72
2022/08/20 11:41:44;;;;;;;18.40;16.58;;;24.30;62.90;;;;;;5119467;28;20388;-71
2022/08/20 11:44:10;;;;;;;17.92;16.15;;;24.30;63.10;;;;;;5120078;28;20376;-74
2022/08/20 11:46:36;;;;;;;18.27;16.57;;;24.30;62.90;;;;;;5118618;28;20449;-78
2022/08/20 11:49:02;;;;;;;18.77;17.17;;;24.30;63.10;;;;;;5118533;28;20457;-77
2022/08/20 11:51:28;;;;;;;18.55;16.80;;;24.30;63.20;;;;;;5120712;28;20381;-78
2022/08/20 11:53:53;;;;;;;19.03;17.13;;;24.30;63.50;;;;;;5153651;27;20423;-76
2022/08/20 11:56:20;;;;;;;19.42;17.50;;;24.30;65.20;;;;;;5120121;28;20861;-70
2022/08/20 11:58:46;;;;;;;18.70;16.80;;;24.30;65.60;;;;;;5152028;27;20408;-73
2022/08/20 12:01:13;;;;;;;18.98;17.08;;;24.30;65.40;;;;;;5118830;28;20919;-70
2022/08/20 12:03:38;;;;;;;19.85;18.02;;;24.40;65.70;;;;;;5119005;28;20891;-75
2022/08/20 12:06:04;;;;;;;23.23;21.30;;;24.40;67.70;;;;;;5119375;28;20451;-73
2022/08/20 12:08:30;;;;;;;30.27;27.98;;;24.40;69.70;;;;;;5116816;28;20435;-71
2022/08/20 12:10:57;;;;;;;25.17;23.20;;;24.50;70.70;;;;;;5118058;28;20385;-72
2022/08/20 12:13:23;;;;;;;24.60;22.38;;;24.50;70.50;;;;;;5116931;28;20395;-78
2022/08/20 12:15:49;;;;;;;24.80;22.70;;;24.60;68.90;;;;;;5117377;28;20400;-70
2022/08/20 12:18:15;;;;;;;27.42;25.05;;;24.60;68.50;;;;;;5115626;28;20395;-71
2022/08/20 12:20:41;;;;;;;28.67;26.47;;;24.60;68.00;;;;;;5113614;28;20403;-76
2022/08/20 12:23:06;;;;;;;30.95;28.40;;;24.60;67.80;;;;;;5114285;28;20401;-79
2022/08/20 12:25:34;;;;;;;27.17;24.73;;;24.60;69.90;;;;;;5117781;28;20738;-78
2022/08/20 12:28:00;;;;;;;25.70;23.55;;;24.60;70.00;;;;;;5117685;28;20443;-77
2022/08/20 12:30:26;;;;;;;26.47;23.73;;;24.70;68.90;;;;;;5118350;28;20369;-70
2022/08/20 12:32:52;;;;;;;26.98;24.48;;;24.70;69.20;;;;;;5115306;28;20392;-73
2022/08/20 12:35:18;;;;;;;26.87;24.37;;;24.70;69.10;;;;;;5118058;28;20928;-78
2022/08/20 12:37:45;;;;;;;30.20;27.95;;;24.70;69.10;;;;;;5116796;28;20384;-75
2022/08/20 12:40:21;;;;;;;28.38;26.25;;;24.80;69.40;;;;;;5116700;28;21049;-68
2022/08/20 12:42:48;;;;;;;27.75;25.55;;;24.80;69.10;;;;;;5116294;28;20380;-76
2022/08/20 12:45:15;;;;;;;30.17;27.95;;;24.80;69.20;;;;;;5115488;28;20381;-74
2022/08/20 12:47:43;;;;;;;26.80;24.65;;;24.80;69.30;;;;;;5117894;28;20900;-79
2022/08/20 12:50:17;;;;;;;32.13;29.52;;;24.80;69.00;;;;;;5118343;28;20384;-74
2022/08/20 12:52:43;;;;;;;30.05;27.75;;;24.80;69.60;;;;;;5117751;28;20463;-71
2022/08/20 12:55:11;;;;;;;28.97;26.87;;;24.80;69.00;;;;;;5116880;28;20467;-72
2022/08/20 12:57:40;;;;;;;28.48;26.40;;;24.80;68.50;;;;;;5115881;28;20403;-72
2022/08/20 13:00:34;;;;;;;28.38;26.55;;;24.80;68.40;;;;;;5116891;28;20385;-78
2022/08/20 13:03:02;;;;;;;30.38;28.38;;;24.80;69.00;;;;;;5116798;28;20385;-83
2022/08/20 13:05:29;;;;;;;26.50;24.77;;;24.80;68.20;;;;;;5117376;28;20391;-80
2022/08/20 13:07:55;;;;;;;23.98;22.38;;;24.80;68.00;;;;;;5116706;28;20435;-76
2022/08/20 13:10:29;;;;;;;22.10;20.23;;;24.80;66.20;;;;;;5116102;28;20420;-77
2022/08/20 13:12:56;;;;;;;25.58;23.98;;;24.80;67.30;;;;;;5117235;28;20396;-77